createdAt,value
2023-04-16T00:00:35.239Z,94869.00
2023-04-16T00:01:35.249Z,94871.00
2023-04-16T00:02:35.353Z,94873.00
2023-04-16T00:03:35.559Z,94873.00
2023-04-16T00:04:35.358Z,94873.00
2023-04-16T00:05:35.271Z,94875.00
2023-04-16T00:06:35.720Z,94879.00
2023-04-16T00:07:35.342Z,94879.00
2023-04-16T00:08:35.281Z,94879.00
2023-04-16T00:09:35.322Z,94879.00
2023-04-16T00:10:35.342Z,94881.00
2023-04-16T00:11:35.339Z,94882.00
2023-04-16T00:12:35.331Z,94881.00
2023-04-16T00:13:35.360Z,94877.00
2023-04-16T00:14:35.310Z,94877.00
2023-04-16T00:15:35.316Z,94875.00
2023-04-16T00:16:35.415Z,94875.00
2023-04-16T00:17:35.386Z,94873.00
2023-04-16T00:18:35.341Z,94873.00
2023-04-16T00:19:35.310Z,94877.00
2023-04-16T00:20:35.356Z,94875.00
2023-04-16T00:21:35.359Z,94873.00
2023-04-16T00:22:35.381Z,94877.00
2023-04-16T00:23:35.481Z,94875.00
2023-04-16T00:24:35.400Z,94877.00
2023-04-16T00:25:35.455Z,94879.00
2023-04-16T00:26:35.454Z,94881.00
2023-04-16T00:27:35.478Z,94881.00
2023-04-16T00:28:35.517Z,94879.00
2023-04-16T00:29:35.535Z,94881.00
2023-04-16T00:30:35.608Z,94882.00
2023-04-16T00:31:35.607Z,94882.00
2023-04-16T00:32:35.674Z,94884.00
2023-04-16T00:33:35.647Z,94877.00
2023-04-16T00:34:35.675Z,94879.00
2023-04-16T00:35:35.706Z,94884.00
2023-04-16T00:36:35.725Z,94882.00
2023-04-16T00:37:35.739Z,94882.00
2023-04-16T00:38:35.842Z,94882.00
2023-04-16T00:39:35.822Z,94882.00
2023-04-16T00:40:35.877Z,94882.00
2023-04-16T00:41:35.918Z,94881.00
2023-04-16T00:42:35.923Z,94882.00
2023-04-16T00:43:35.940Z,94881.00
2023-04-16T00:44:36.020Z,94881.00
2023-04-16T00:45:35.975Z,94882.00
2023-04-16T00:46:36.079Z,94884.00
2023-04-16T00:47:36.198Z,94884.00
2023-04-16T00:48:36.169Z,94882.00
2023-04-16T00:49:36.167Z,94886.00
2023-04-16T00:50:36.236Z,94888.00
2023-04-16T00:51:36.285Z,94890.00
2023-04-16T00:52:36.356Z,94888.00
2023-04-16T00:53:36.360Z,94888.00
2023-04-16T00:54:36.455Z,94888.00
2023-04-16T00:55:36.451Z,94886.00
2023-04-16T00:56:36.478Z,94884.00
2023-04-16T00:57:36.541Z,94884.00
2023-04-16T00:58:36.617Z,94888.00
2023-04-16T00:59:36.601Z,94886.00
2023-04-16T01:00:36.646Z,94886.00
2023-04-16T01:01:36.668Z,94886.00
2023-04-16T01:02:36.846Z,94890.00
2023-04-16T01:03:36.877Z,94888.00
2023-04-16T01:04:36.828Z,94890.00
2023-04-16T01:05:36.768Z,94886.00
2023-04-16T01:06:36.784Z,94884.00
2023-04-16T01:07:36.816Z,94884.00
2023-04-16T01:08:36.783Z,94882.00
2023-04-16T01:09:36.859Z,94884.00
2023-04-16T01:10:36.886Z,94884.00
2023-04-16T01:11:36.882Z,94882.00
2023-04-16T01:12:36.919Z,94881.00
2023-04-16T01:13:36.957Z,94884.00
2023-04-16T01:14:36.948Z,94882.00
2023-04-16T01:15:36.955Z,94881.00
2023-04-16T01:16:37.000Z,94884.00
2023-04-16T01:17:37.010Z,94884.00
2023-04-16T01:18:37.025Z,94884.00
2023-04-16T01:19:37.023Z,94884.00
2023-04-16T01:20:37.010Z,94884.00
2023-04-16T01:21:37.111Z,94884.00
2023-04-16T01:22:37.049Z,94882.00
2023-04-16T01:23:37.077Z,94886.00
2023-04-16T01:24:37.057Z,94884.00
2023-04-16T01:25:37.020Z,94888.00
2023-04-16T01:26:37.068Z,94890.00
2023-04-16T01:27:37.071Z,94888.00
2023-04-16T01:28:37.091Z,94888.00
2023-04-16T01:29:37.102Z,94892.00
2023-04-16T01:30:37.233Z,94892.00
2023-04-16T01:31:37.221Z,94894.00
2023-04-16T01:32:37.161Z,94894.00
2023-04-16T01:33:37.147Z,94894.00
2023-04-16T01:34:37.179Z,94892.00
2023-04-16T01:35:37.515Z,94892.00
2023-04-16T01:36:37.157Z,94894.00
2023-04-16T01:37:37.185Z,94894.00
2023-04-16T01:38:37.196Z,94896.00
2023-04-16T01:39:37.165Z,94894.00
2023-04-16T01:40:37.178Z,94896.00
2023-04-16T01:41:37.201Z,94898.00
2023-04-16T01:42:37.223Z,94900.00
2023-04-16T01:43:40.098Z,94898.00
2023-04-16T01:44:37.574Z,94898.00
2023-04-16T01:45:37.194Z,94896.00
2023-04-16T01:46:37.193Z,94900.00
2023-04-16T01:47:37.224Z,94898.00
2023-04-16T01:48:37.158Z,94898.00
2023-04-16T01:49:37.196Z,94902.00
2023-04-16T01:50:37.144Z,94902.00
2023-04-16T01:51:37.177Z,94902.00
2023-04-16T01:52:37.210Z,94904.00
2023-04-16T01:53:37.296Z,94912.00
2023-04-16T01:54:37.171Z,94904.00
2023-04-16T01:55:37.122Z,94912.00
2023-04-16T01:56:37.079Z,94914.00
2023-04-16T01:57:37.097Z,94912.00
2023-04-16T01:58:37.093Z,94912.00
2023-04-16T01:59:37.123Z,94904.00
2023-04-16T02:00:37.115Z,94914.00
2023-04-16T02:01:37.085Z,94914.00
2023-04-16T02:02:37.242Z,94914.00
2023-04-16T02:03:37.171Z,94916.00
2023-04-16T02:04:37.094Z,94914.00
2023-04-16T02:05:37.053Z,94912.00
2023-04-16T02:06:37.079Z,94914.00
2023-04-16T02:07:37.080Z,94912.00
2023-04-16T02:08:37.029Z,94912.00
2023-04-16T02:09:37.030Z,94904.00
2023-04-16T02:10:37.041Z,94912.00
2023-04-16T02:11:37.014Z,94914.00
2023-04-16T02:12:37.019Z,94914.00
2023-04-16T02:13:37.032Z,94914.00
2023-04-16T02:14:37.305Z,94914.00
2023-04-16T02:15:36.985Z,94912.00
2023-04-16T02:16:37.020Z,94912.00
2023-04-16T02:17:37.018Z,94912.00
2023-04-16T02:18:36.912Z,94914.00
2023-04-16T02:19:36.947Z,94914.00
2023-04-16T02:20:36.959Z,94916.00
2023-04-16T02:21:36.962Z,94918.00
2023-04-16T02:22:36.941Z,94918.00
2023-04-16T02:23:36.925Z,94918.00
2023-04-16T02:24:36.936Z,94918.00
2023-04-16T02:25:36.923Z,94922.00
2023-04-16T02:26:36.882Z,94920.00
2023-04-16T02:27:36.918Z,94922.00
2023-04-16T02:28:36.898Z,94920.00
2023-04-16T02:29:36.961Z,94922.00
2023-04-16T02:30:36.969Z,94920.00
2023-04-16T02:31:37.157Z,94918.00
2023-04-16T02:32:37.104Z,94920.00
2023-04-16T02:33:37.056Z,94920.00
2023-04-16T02:34:37.114Z,94920.00
2023-04-16T02:35:37.112Z,94922.00
2023-04-16T02:36:37.173Z,94922.00
2023-04-16T02:37:37.211Z,94926.00
2023-04-16T02:38:37.241Z,94924.00
2023-04-16T02:39:37.288Z,94926.00
2023-04-16T02:40:37.310Z,94924.00
2023-04-16T02:41:37.320Z,94922.00
2023-04-16T02:42:37.314Z,94926.00
2023-04-16T02:43:37.350Z,94924.00
2023-04-16T02:44:37.359Z,94924.00
2023-04-16T02:45:37.468Z,94926.00
2023-04-16T02:46:37.394Z,94930.00
2023-04-16T02:47:37.491Z,94928.00
2023-04-16T02:48:37.424Z,94932.00
2023-04-16T02:49:37.449Z,94928.00
2023-04-16T02:50:37.498Z,94930.00
2023-04-16T02:51:37.532Z,94928.00
2023-04-16T02:52:37.553Z,94926.00
2023-04-16T02:53:37.529Z,94928.00
2023-04-16T02:54:37.606Z,94932.00
2023-04-16T02:55:37.514Z,94930.00
2023-04-16T02:56:37.560Z,94934.00
2023-04-16T02:57:38.879Z,94934.00
2023-04-16T02:58:37.584Z,94934.00
2023-04-16T02:59:37.573Z,94934.00
2023-04-16T03:00:37.615Z,94935.00
2023-04-16T03:01:37.696Z,94937.00
2023-04-16T03:02:37.680Z,94937.00
2023-04-16T03:03:37.617Z,94939.00
2023-04-16T03:04:37.696Z,94939.00
2023-04-16T03:05:39.744Z,94941.00
2023-04-16T03:06:37.651Z,94941.00
2023-04-16T03:07:37.670Z,94941.00
2023-04-16T03:08:37.636Z,94943.00
2023-04-16T03:09:37.702Z,94943.00
2023-04-16T03:10:37.615Z,94941.00
2023-04-16T03:11:37.613Z,94943.00
2023-04-16T03:12:37.613Z,94943.00
2023-04-16T03:13:37.603Z,94945.00
2023-04-16T03:14:37.654Z,94945.00
2023-04-16T03:15:37.610Z,94945.00
2023-04-16T03:16:37.633Z,94947.00
2023-04-16T03:17:37.652Z,94951.00
2023-04-16T03:18:37.550Z,94949.00
2023-04-16T03:19:37.578Z,94949.00
2023-04-16T03:20:37.548Z,94947.00
2023-04-16T03:21:37.594Z,94949.00
2023-04-16T03:22:37.551Z,94951.00
2023-04-16T03:23:37.566Z,94953.00
2023-04-16T03:24:37.560Z,94945.00
2023-04-16T03:25:37.552Z,94949.00
2023-04-16T03:26:37.539Z,94949.00
2023-04-16T03:27:37.638Z,94949.00
2023-04-16T03:28:37.488Z,94951.00
2023-04-16T03:29:37.554Z,94949.00
2023-04-16T03:30:37.504Z,94947.00
2023-04-16T03:31:37.633Z,94945.00
2023-04-16T03:32:37.540Z,94943.00
2023-04-16T03:33:37.449Z,94945.00
2023-04-16T03:34:37.515Z,94943.00
2023-04-16T03:35:37.507Z,94941.00
2023-04-16T03:36:37.475Z,94943.00
2023-04-16T03:37:37.449Z,94943.00
2023-04-16T03:38:37.444Z,94947.00
2023-04-16T03:39:37.455Z,94947.00
2023-04-16T03:40:37.400Z,94953.00
2023-04-16T03:41:37.422Z,94949.00
2023-04-16T03:42:37.428Z,94953.00
2023-04-16T03:43:37.427Z,94951.00
2023-04-16T03:44:37.375Z,94951.00
2023-04-16T03:45:37.384Z,94949.00
2023-04-16T03:46:37.524Z,94957.00
2023-04-16T03:47:37.397Z,94953.00
2023-04-16T03:48:37.365Z,94953.00
2023-04-16T03:49:37.368Z,94959.00
2023-04-16T03:50:37.390Z,94955.00
2023-04-16T03:51:37.316Z,94957.00
2023-04-16T03:52:37.333Z,94959.00
2023-04-16T03:53:37.365Z,94961.00
2023-04-16T03:54:37.350Z,94961.00
2023-04-16T03:55:37.328Z,94961.00
2023-04-16T03:56:37.304Z,94959.00
2023-04-16T03:57:37.328Z,94961.00
2023-04-16T03:58:37.296Z,94963.00
2023-04-16T03:59:37.316Z,94963.00
2023-04-16T04:00:37.277Z,94963.00
2023-04-16T04:01:37.344Z,94963.00
2023-04-16T04:02:37.365Z,94963.00
2023-04-16T04:03:37.497Z,94963.00
2023-04-16T04:04:37.463Z,94961.00
2023-04-16T04:05:37.252Z,94961.00
2023-04-16T04:06:37.255Z,94959.00
2023-04-16T04:07:37.260Z,94959.00
2023-04-16T04:08:37.250Z,94963.00
2023-04-16T04:09:37.291Z,94965.00
2023-04-16T04:10:37.219Z,94969.00
2023-04-16T04:11:37.253Z,94971.00
2023-04-16T04:12:37.194Z,94971.00
2023-04-16T04:13:37.240Z,94973.00
2023-04-16T04:14:37.226Z,94975.00
2023-04-16T04:15:37.161Z,94969.00
2023-04-16T04:16:37.230Z,94971.00
2023-04-16T04:17:37.229Z,94973.00
2023-04-16T04:18:37.192Z,94969.00
2023-04-16T04:19:40.260Z,94973.00
2023-04-16T04:20:38.133Z,94973.00
2023-04-16T04:21:37.180Z,94973.00
2023-04-16T04:22:37.163Z,94973.00
2023-04-16T04:23:37.167Z,94979.00
2023-04-16T04:24:37.183Z,94979.00
2023-04-16T04:25:37.087Z,94979.00
2023-04-16T04:26:37.118Z,94979.00
2023-04-16T04:27:37.116Z,94984.00
2023-04-16T04:28:37.096Z,94984.00
2023-04-16T04:29:37.107Z,94984.00
2023-04-16T04:30:37.070Z,94984.00
2023-04-16T04:31:37.068Z,94982.00
2023-04-16T04:32:37.158Z,94984.00
2023-04-16T04:33:37.060Z,94982.00
2023-04-16T04:34:37.095Z,94982.00
2023-04-16T04:35:37.058Z,94984.00
2023-04-16T04:36:37.043Z,94986.00
2023-04-16T04:37:37.034Z,94988.00
2023-04-16T04:38:37.039Z,94988.00
2023-04-16T04:39:37.058Z,94992.00
2023-04-16T04:40:37.052Z,94994.00
2023-04-16T04:41:37.094Z,94994.00
2023-04-16T04:42:37.145Z,94994.00
2023-04-16T04:43:37.133Z,94994.00
2023-04-16T04:44:37.220Z,94996.00
2023-04-16T04:45:37.213Z,94998.00
2023-04-16T04:46:37.190Z,94996.00
2023-04-16T04:47:37.230Z,95000.00
2023-04-16T04:48:37.194Z,95004.00
2023-04-16T04:49:37.219Z,95004.00
2023-04-16T04:50:37.244Z,95006.00
2023-04-16T04:51:37.276Z,95006.00
2023-04-16T04:52:37.288Z,95008.00
2023-04-16T04:53:37.232Z,95004.00
2023-04-16T04:54:37.235Z,95004.00
2023-04-16T04:55:37.252Z,95004.00
2023-04-16T04:56:37.251Z,95006.00
2023-04-16T04:57:37.277Z,95008.00
2023-04-16T04:58:37.246Z,95008.00
2023-04-16T04:59:37.285Z,95010.00
2023-04-16T05:00:37.269Z,95008.00
2023-04-16T05:01:37.309Z,95010.00
2023-04-16T05:02:37.289Z,95006.00
2023-04-16T05:03:37.495Z,95010.00
2023-04-16T05:04:37.342Z,95002.00
2023-04-16T05:05:37.298Z,95006.00
2023-04-16T05:06:37.336Z,95006.00
2023-04-16T05:07:37.333Z,95008.00
2023-04-16T05:08:37.344Z,95008.00
2023-04-16T05:09:37.383Z,95010.00
2023-04-16T05:10:37.365Z,95014.00
2023-04-16T05:11:37.367Z,95016.00
2023-04-16T05:12:37.373Z,95016.00
2023-04-16T05:13:37.370Z,95016.00
2023-04-16T05:14:37.420Z,95018.00
2023-04-16T05:15:37.392Z,95018.00
2023-04-16T05:16:37.467Z,95018.00
2023-04-16T05:17:37.479Z,95020.00
2023-04-16T05:18:37.406Z,95018.00
2023-04-16T05:19:37.426Z,95020.00
2023-04-16T05:20:37.467Z,95020.00
2023-04-16T05:21:37.545Z,95020.00
2023-04-16T05:22:37.500Z,95024.00
2023-04-16T05:23:37.495Z,95024.00
2023-04-16T05:24:37.551Z,95026.00
2023-04-16T05:25:37.564Z,95026.00
2023-04-16T05:26:37.539Z,95029.00
2023-04-16T05:27:37.559Z,95031.00
2023-04-16T05:28:37.588Z,95029.00
2023-04-16T05:29:37.713Z,95033.00
2023-04-16T05:30:37.659Z,95035.00
2023-04-16T05:31:37.655Z,95033.00
2023-04-16T05:32:37.728Z,95035.00
2023-04-16T05:33:37.731Z,95031.00
2023-04-16T05:34:37.745Z,95037.00
2023-04-16T05:35:37.786Z,95037.00
2023-04-16T05:36:37.745Z,95037.00
2023-04-16T05:37:37.748Z,95041.00
2023-04-16T05:38:37.774Z,95043.00
2023-04-16T05:39:38.604Z,95043.00
2023-04-16T05:40:37.844Z,95045.00
2023-04-16T05:41:37.794Z,95043.00
2023-04-16T05:42:37.855Z,95041.00
2023-04-16T05:43:37.884Z,95043.00
2023-04-16T05:44:37.918Z,95045.00
2023-04-16T05:45:37.874Z,95045.00
2023-04-16T05:46:38.108Z,95049.00
2023-04-16T05:47:38.011Z,95051.00
2023-04-16T05:48:38.014Z,95051.00
2023-04-16T05:49:37.974Z,95051.00
2023-04-16T05:50:38.006Z,95053.00
2023-04-16T05:51:38.006Z,95053.00
2023-04-16T05:52:38.034Z,95055.00
2023-04-16T05:53:38.036Z,95053.00
2023-04-16T05:54:38.067Z,95055.00
2023-04-16T05:55:38.055Z,95057.00
2023-04-16T05:56:38.106Z,95057.00
2023-04-16T05:57:38.109Z,95059.00
2023-04-16T05:58:38.094Z,95059.00
2023-04-16T05:59:38.152Z,95061.00
2023-04-16T06:00:38.159Z,95063.00
2023-04-16T06:01:38.185Z,95061.00
2023-04-16T06:02:38.215Z,95061.00
2023-04-16T06:03:38.188Z,95063.00
2023-04-16T06:04:38.169Z,95067.00
2023-04-16T06:05:38.206Z,95065.00
2023-04-16T06:06:38.214Z,95068.00
2023-04-16T06:07:38.194Z,95067.00
2023-04-16T06:08:38.206Z,95067.00
2023-04-16T06:09:38.205Z,95068.00
2023-04-16T06:10:38.232Z,95067.00
2023-04-16T06:11:38.229Z,95068.00
2023-04-16T06:12:38.229Z,95068.00
2023-04-16T06:13:38.205Z,95068.00
2023-04-16T06:14:38.230Z,95070.00
2023-04-16T06:15:38.257Z,95073.00
2023-04-16T06:16:38.240Z,95073.00
2023-04-16T06:17:38.237Z,95073.00
2023-04-16T06:18:38.313Z,95070.00
2023-04-16T06:19:38.284Z,95073.00
2023-04-16T06:20:38.404Z,95073.00
2023-04-16T06:21:38.401Z,95075.00
2023-04-16T06:22:38.392Z,95076.00
2023-04-16T06:23:38.407Z,95076.00
2023-04-16T06:24:38.413Z,95076.00
2023-04-16T06:25:38.398Z,95076.00
2023-04-16T06:26:38.389Z,95075.00
2023-04-16T06:27:38.455Z,95076.00
2023-04-16T06:28:38.469Z,95076.00
2023-04-16T06:29:41.515Z,95075.00
2023-04-16T06:30:38.479Z,95075.00
2023-04-16T06:31:38.498Z,95076.00
2023-04-16T06:32:38.513Z,95075.00
2023-04-16T06:33:38.504Z,95076.00
2023-04-16T06:34:38.474Z,95078.00
2023-04-16T06:35:38.446Z,95080.00
2023-04-16T06:36:38.458Z,95078.00
2023-04-16T06:37:38.465Z,95082.00
2023-04-16T06:38:38.474Z,95080.00
2023-04-16T06:39:38.422Z,95078.00
2023-04-16T06:40:38.424Z,95080.00
2023-04-16T06:41:38.424Z,95078.00
2023-04-16T06:42:38.389Z,95075.00
2023-04-16T06:43:38.376Z,95073.00
2023-04-16T06:44:38.415Z,95075.00
2023-04-16T06:45:38.405Z,95076.00
2023-04-16T06:46:38.417Z,95078.00
2023-04-16T06:47:38.460Z,95075.00
2023-04-16T06:48:38.345Z,95075.00
2023-04-16T06:49:38.359Z,95073.00
2023-04-16T06:50:38.365Z,95073.00
2023-04-16T06:51:38.353Z,95070.00
2023-04-16T06:52:38.316Z,95070.00
2023-04-16T06:53:38.325Z,95068.00
2023-04-16T06:54:38.302Z,95073.00
2023-04-16T06:55:38.376Z,95070.00
2023-04-16T06:56:38.389Z,95070.00
2023-04-16T06:57:38.298Z,95073.00
2023-04-16T06:58:38.304Z,95070.00
2023-04-16T06:59:38.323Z,95076.00
2023-04-16T07:00:38.350Z,95075.00
2023-04-16T07:01:38.261Z,95070.00
2023-04-16T07:02:38.398Z,95068.00
2023-04-16T07:03:38.413Z,95067.00
2023-04-16T07:04:38.236Z,95068.00
2023-04-16T07:05:38.250Z,95075.00
2023-04-16T07:06:38.255Z,95075.00
2023-04-16T07:07:38.241Z,95076.00
2023-04-16T07:08:38.233Z,95080.00
2023-04-16T07:09:38.245Z,95078.00
2023-04-16T07:10:38.166Z,95080.00
2023-04-16T07:11:38.186Z,95082.00
2023-04-16T07:12:38.179Z,95082.00
2023-04-16T07:13:38.194Z,95086.00
2023-04-16T07:14:38.219Z,95080.00
2023-04-16T07:15:38.176Z,95080.00
2023-04-16T07:16:38.252Z,95086.00
2023-04-16T07:17:38.166Z,95082.00
2023-04-16T07:18:38.173Z,95082.00
2023-04-16T07:19:38.190Z,95084.00
2023-04-16T07:20:38.145Z,95082.00
2023-04-16T07:21:38.156Z,95082.00
2023-04-16T07:22:38.159Z,95084.00
2023-04-16T07:23:38.123Z,95086.00
2023-04-16T07:24:38.139Z,95084.00
2023-04-16T07:25:38.081Z,95086.00
2023-04-16T07:26:38.144Z,95086.00
2023-04-16T07:27:38.203Z,95082.00
2023-04-16T07:28:38.299Z,95086.00
2023-04-16T07:29:38.352Z,95090.00
2023-04-16T07:30:38.435Z,95092.00
2023-04-16T07:31:38.533Z,95092.00
2023-04-16T07:32:38.571Z,95090.00
2023-04-16T07:33:38.565Z,95094.00
2023-04-16T07:34:38.637Z,95096.00
2023-04-16T07:35:38.650Z,95096.00
2023-04-16T07:36:38.669Z,95096.00
2023-04-16T07:37:38.743Z,95096.00
2023-04-16T07:38:38.750Z,95098.00
2023-04-16T07:39:38.836Z,95100.00
2023-04-16T07:40:38.865Z,95100.00
2023-04-16T07:41:38.858Z,95100.00
2023-04-16T07:42:38.929Z,95098.00
2023-04-16T07:43:38.979Z,95100.00
2023-04-16T07:44:39.014Z,95100.00
2023-04-16T07:45:40.060Z,95100.00
2023-04-16T07:46:46.232Z,95102.00
2023-04-16T07:47:40.180Z,95102.00
2023-04-16T07:48:39.096Z,95104.00
2023-04-16T07:49:39.129Z,95102.00
2023-04-16T07:50:39.108Z,95102.00
2023-04-16T07:51:39.089Z,95102.00
2023-04-16T07:52:39.057Z,95104.00
2023-04-16T07:53:39.087Z,95104.00
2023-04-16T07:54:39.111Z,95106.00
2023-04-16T07:55:39.057Z,95108.00
2023-04-16T07:56:39.067Z,95106.00
2023-04-16T07:57:39.034Z,95106.00
2023-04-16T07:58:39.069Z,95106.00
2023-04-16T07:59:39.177Z,95104.00
2023-04-16T08:00:39.192Z,95106.00
2023-04-16T08:01:39.256Z,95106.00
2023-04-16T08:02:39.389Z,95102.00
2023-04-16T08:03:39.480Z,95106.00
2023-04-16T08:04:39.398Z,95104.00
2023-04-16T08:05:39.389Z,95104.00
2023-04-16T08:06:39.390Z,95106.00
2023-04-16T08:07:39.410Z,95108.00
2023-04-16T08:08:39.457Z,95108.00
2023-04-16T08:09:39.470Z,95110.00
2023-04-16T08:10:39.440Z,95112.00
2023-04-16T08:11:39.477Z,95116.00
2023-04-16T08:12:39.511Z,95116.00
2023-04-16T08:13:39.482Z,95116.00
2023-04-16T08:14:39.493Z,95116.00
2023-04-16T08:15:39.580Z,95118.00
2023-04-16T08:16:39.516Z,95116.00
2023-04-16T08:17:39.609Z,95118.00
2023-04-16T08:18:39.527Z,95118.00
2023-04-16T08:19:39.527Z,95120.00
2023-04-16T08:20:39.567Z,95122.00
2023-04-16T08:21:39.570Z,95122.00
2023-04-16T08:22:39.600Z,95122.00
2023-04-16T08:23:39.584Z,95125.00
2023-04-16T08:24:39.598Z,95129.00
2023-04-16T08:25:39.687Z,95131.00
2023-04-16T08:26:39.641Z,95129.00
2023-04-16T08:27:39.882Z,95131.00
2023-04-16T08:28:39.793Z,95129.00
2023-04-16T08:29:39.848Z,95131.00
2023-04-16T08:30:39.892Z,95129.00
2023-04-16T08:31:40.014Z,95129.00
2023-04-16T08:32:40.047Z,95133.00
2023-04-16T08:33:40.016Z,95135.00
2023-04-16T08:34:40.078Z,95135.00
2023-04-16T08:35:40.150Z,95135.00
2023-04-16T08:36:40.152Z,95137.00
2023-04-16T08:37:40.189Z,95135.00
2023-04-16T08:38:40.230Z,95137.00
2023-04-16T08:39:40.212Z,95141.00
2023-04-16T08:40:40.263Z,95141.00
2023-04-16T08:41:40.228Z,95139.00
2023-04-16T08:42:40.258Z,95145.00
2023-04-16T08:43:40.291Z,95143.00
2023-04-16T08:44:40.288Z,95141.00
2023-04-16T08:45:40.312Z,95139.00
2023-04-16T08:46:40.445Z,95141.00
2023-04-16T08:47:40.315Z,95143.00
2023-04-16T08:48:40.342Z,95145.00
2023-04-16T08:49:40.292Z,95147.00
2023-04-16T08:50:40.321Z,95143.00
2023-04-16T08:51:40.320Z,95143.00
2023-04-16T08:52:40.321Z,95143.00
2023-04-16T08:53:40.309Z,95145.00
2023-04-16T08:54:40.340Z,95143.00
2023-04-16T08:55:40.422Z,95145.00
2023-04-16T08:56:42.886Z,95143.00
2023-04-16T08:57:40.354Z,95143.00
2023-04-16T08:58:40.338Z,95145.00
2023-04-16T08:59:40.366Z,95147.00
2023-04-16T09:00:40.357Z,95145.00
2023-04-16T09:01:40.348Z,95145.00
2023-04-16T09:02:40.681Z,95145.00
2023-04-16T09:03:40.360Z,95147.00
2023-04-16T09:04:40.377Z,95145.00
2023-04-16T09:05:40.293Z,95145.00
2023-04-16T09:06:40.297Z,95147.00
2023-04-16T09:07:40.287Z,95147.00
2023-04-16T09:08:40.278Z,95143.00
2023-04-16T09:09:40.218Z,95149.00
2023-04-16T09:10:40.295Z,95147.00
2023-04-16T09:11:40.324Z,95147.00
2023-04-16T09:12:40.253Z,95147.00
2023-04-16T09:13:40.242Z,95145.00
2023-04-16T09:14:40.248Z,95147.00
2023-04-16T09:15:40.246Z,95147.00
2023-04-16T09:16:40.379Z,95149.00
2023-04-16T09:17:40.275Z,95149.00
2023-04-16T09:18:40.191Z,95149.00
2023-04-16T09:19:40.182Z,95149.00
2023-04-16T09:20:40.995Z,95149.00
2023-04-16T09:21:40.199Z,95147.00
2023-04-16T09:22:40.230Z,95149.00
2023-04-16T09:23:40.155Z,95149.00
2023-04-16T09:24:40.154Z,95147.00
2023-04-16T09:25:40.208Z,95151.00
2023-04-16T09:26:40.163Z,95149.00
2023-04-16T09:27:40.140Z,95149.00
2023-04-16T09:28:40.189Z,95151.00
2023-04-16T09:29:40.178Z,95147.00
2023-04-16T09:30:40.175Z,95149.00
2023-04-16T09:31:40.161Z,95149.00
2023-04-16T09:32:40.179Z,95149.00
2023-04-16T09:33:40.096Z,95147.00
2023-04-16T09:34:40.094Z,95151.00
2023-04-16T09:35:40.105Z,95151.00
2023-04-16T09:36:40.083Z,95149.00
2023-04-16T09:37:40.106Z,95149.00
2023-04-16T09:38:40.080Z,95149.00
2023-04-16T09:39:40.078Z,95147.00
2023-04-16T09:40:40.102Z,95147.00
2023-04-16T09:41:40.037Z,95147.00
2023-04-16T09:42:40.059Z,95145.00
2023-04-16T09:43:40.074Z,95145.00
2023-04-16T09:44:40.079Z,95149.00
2023-04-16T09:45:40.130Z,95141.00
2023-04-16T09:46:40.018Z,95145.00
2023-04-16T09:47:40.110Z,95147.00
2023-04-16T09:48:40.024Z,95143.00
2023-04-16T09:49:39.991Z,95145.00
2023-04-16T09:50:39.994Z,95145.00
2023-04-16T09:51:40.025Z,95143.00
2023-04-16T09:52:39.983Z,95141.00
2023-04-16T09:53:39.969Z,95145.00
2023-04-16T09:54:40.058Z,95143.00
2023-04-16T09:55:40.022Z,95143.00
2023-04-16T09:56:39.972Z,95143.00
2023-04-16T09:57:39.941Z,95143.00
2023-04-16T09:58:39.929Z,95141.00
2023-04-16T09:59:39.951Z,95141.00
2023-04-16T10:00:43.661Z,95141.00
2023-04-16T10:01:40.033Z,95141.00
2023-04-16T10:02:39.981Z,95139.00
2023-04-16T10:03:40.220Z,95139.00
2023-04-16T10:04:39.900Z,95139.00
2023-04-16T10:05:39.935Z,95135.00
2023-04-16T10:06:39.881Z,95135.00
2023-04-16T10:07:39.901Z,95139.00
2023-04-16T10:08:39.880Z,95137.00
2023-04-16T10:09:39.871Z,95139.00
2023-04-16T10:10:39.880Z,95137.00
2023-04-16T10:11:39.864Z,95137.00
2023-04-16T10:12:39.838Z,95137.00
2023-04-16T10:13:39.873Z,95135.00
2023-04-16T10:14:39.867Z,95137.00
2023-04-16T10:15:39.858Z,95135.00
2023-04-16T10:16:39.950Z,95139.00
2023-04-16T10:17:39.897Z,95139.00
2023-04-16T10:18:39.802Z,95137.00
2023-04-16T10:19:39.778Z,95135.00
2023-04-16T10:20:39.781Z,95133.00
2023-04-16T10:21:39.797Z,95133.00
2023-04-16T10:22:39.805Z,95135.00
2023-04-16T10:23:39.790Z,95133.00
2023-04-16T10:24:39.772Z,95127.00
2023-04-16T10:25:39.814Z,95133.00
2023-04-16T10:26:39.778Z,95131.00
2023-04-16T10:27:39.728Z,95133.00
2023-04-16T10:28:39.816Z,95133.00
2023-04-16T10:29:39.709Z,95135.00
2023-04-16T10:30:39.842Z,95135.00
2023-04-16T10:31:39.729Z,95133.00
2023-04-16T10:32:39.754Z,95135.00
2023-04-16T10:33:39.722Z,95137.00
2023-04-16T10:34:39.681Z,95133.00
2023-04-16T10:35:39.695Z,95133.00
2023-04-16T10:36:39.688Z,95135.00
2023-04-16T10:37:39.640Z,95131.00
2023-04-16T10:38:39.668Z,95135.00
2023-04-16T10:39:39.684Z,95135.00
2023-04-16T10:40:39.682Z,95135.00
2023-04-16T10:41:39.632Z,95135.00
2023-04-16T10:42:39.681Z,95137.00
2023-04-16T10:43:39.746Z,95137.00
2023-04-16T10:44:41.888Z,95133.00
2023-04-16T10:45:39.792Z,95135.00
2023-04-16T10:46:39.907Z,95135.00
2023-04-16T10:47:39.808Z,95131.00
2023-04-16T10:48:49.629Z,95133.00
2023-04-16T10:49:40.766Z,95133.00
2023-04-16T10:50:39.756Z,95131.00
2023-04-16T10:51:39.767Z,95133.00
2023-04-16T10:52:39.772Z,95129.00
2023-04-16T10:53:39.759Z,95127.00
2023-04-16T10:54:39.772Z,95127.00
2023-04-16T10:55:39.735Z,95129.00
2023-04-16T10:56:39.694Z,95127.00
2023-04-16T10:57:39.724Z,95133.00
2023-04-16T10:58:39.724Z,95133.00
2023-04-16T10:59:39.713Z,95131.00
2023-04-16T11:00:39.752Z,95131.00
2023-04-16T11:01:39.971Z,95129.00
2023-04-16T11:02:39.887Z,95131.00
2023-04-16T11:03:40.041Z,95131.00
2023-04-16T11:04:39.974Z,95125.00
2023-04-16T11:05:39.942Z,95127.00
2023-04-16T11:06:39.898Z,95127.00
2023-04-16T11:07:39.999Z,95129.00
2023-04-16T11:08:53.247Z,95127.00
2023-04-16T11:09:40.950Z,95129.00
2023-04-16T11:10:39.944Z,95125.00
2023-04-16T11:11:40.028Z,95125.00
2023-04-16T11:12:39.990Z,95127.00
2023-04-16T11:13:40.657Z,95125.00
2023-04-16T11:14:39.939Z,95125.00
2023-04-16T11:15:39.998Z,95125.00
2023-04-16T11:16:39.883Z,95129.00
2023-04-16T11:17:40.022Z,95129.00
2023-04-16T11:18:41.637Z,95129.00
2023-04-16T11:19:40.900Z,95125.00
2023-04-16T11:20:39.894Z,95127.00
2023-04-16T11:21:39.929Z,95127.00
2023-04-16T11:22:39.827Z,95129.00
2023-04-16T11:23:39.865Z,95125.00
2023-04-16T11:24:39.866Z,95123.00
2023-04-16T11:25:39.835Z,95129.00
2023-04-16T11:26:39.822Z,95125.00
2023-04-16T11:27:39.904Z,95127.00
2023-04-16T11:28:39.907Z,95127.00
2023-04-16T11:29:39.936Z,95127.00
2023-04-16T11:30:39.967Z,95131.00
2023-04-16T11:31:40.069Z,95129.00
2023-04-16T11:32:40.087Z,95131.00
2023-04-16T11:33:40.119Z,95131.00
2023-04-16T11:34:40.216Z,95131.00
2023-04-16T11:35:40.296Z,95127.00
2023-04-16T11:36:40.287Z,95129.00
2023-04-16T11:37:40.348Z,95133.00
2023-04-16T11:38:40.372Z,95135.00
2023-04-16T11:39:40.358Z,95133.00
2023-04-16T11:40:40.456Z,95131.00
2023-04-16T11:41:40.525Z,95127.00
2023-04-16T11:42:40.589Z,95125.00
2023-04-16T11:43:40.532Z,95125.00
2023-04-16T11:44:40.554Z,95127.00